Time;durP1;ratioP1;P1;durP2;ratioP2;P2;SDS_P1;SDS_P2;PMS_P1;PMS_P2;Temp;Humidity;BMP_temperature;BMP_pressure;BME280_temperature;BME280_humidity;BME280_pressure;Samples;Min_cycle;Max_cycle;Signal;HPM_P1;HPM_P2
2021/12/25 00:01:49;;;;;;;14.30;8.68;;;;;;;4.05;71.22;101178.63;4962048;28;20573;-95
2021/12/25 00:04:42;;;;;;;13.52;8.80;;;;;;;4.23;70.78;101194.84;4969285;28;20023;-96
2021/12/25 00:07:17;;;;;;;12.32;8.05;;;;;;;3.97;71.19;101179.66;4996706;28;20135;-96
2021/12/25 00:10:03;;;;;;;11.68;8.20;;;;;;;3.97;71.81;101192.56;4981940;28;20105;-96
2021/12/25 00:12:50;;;;;;;12.07;7.97;;;;;;;4.18;70.99;101195.22;4987886;28;20046;-96
2021/12/25 00:15:18;;;;;;;12.35;7.90;;;;;;;4.33;70.07;101205.97;4971022;28;20042;-95
2021/12/25 00:17:54;;;;;;;13.60;8.18;;;;;;;3.87;71.13;101171.88;4973385;28;20034;-94
2021/12/25 00:20:23;;;;;;;13.02;8.50;;;;;;;4.13;71.27;101212.91;4962335;28;20030;-95
2021/12/25 00:23:05;;;;;;;13.95;8.65;;;;;;;4.19;70.61;101185.00;4955022;28;20046;-93
2021/12/25 00:25:45;;;;;;;12.35;8.35;;;;;;;4.18;70.99;101213.31;4944740;28;20026;-94
2021/12/25 00:31:42;;;;;;;14.27;8.15;;;;;;;4.06;71.69;101213.13;4962028;28;20125;-94
2021/12/25 00:34:14;;;;;;;11.23;7.40;;;;;;;3.86;71.52;101185.56;4959041;28;20088;-95
2021/12/25 00:36:42;;;;;;;12.70;8.30;;;;;;;3.84;72.01;101190.59;4983419;28;20038;-94
2021/12/25 00:39:08;;;;;;;12.23;7.85;;;;;;;4.16;71.18;101227.78;5005261;28;20006;-92
2021/12/25 00:41:33;;;;;;;13.30;8.07;;;;;;;4.14;71.16;101195.72;4961777;28;20055;-94
2021/12/25 00:44:02;;;;;;;12.50;8.15;;;;;;;4.05;71.49;101213.91;4946192;28;20509;-95
2021/12/25 00:46:36;;;;;;;11.35;8.10;;;;;;;3.73;70.64;101131.03;4970972;28;20032;-95
2021/12/25 00:49:03;;;;;;;13.77;8.40;;;;;;;3.23;71.58;101069.03;4955536;28;20023;-94
2021/12/25 00:52:04;;;;;;;11.75;7.85;;;;;;;4.21;71.18;101237.75;4972797;28;20066;-94
2021/12/25 00:54:31;;;;;;;13.95;8.48;;;;;;;3.57;70.28;101090.94;4986805;28;20026;-94
2021/12/25 00:57:03;;;;;;;12.85;8.27;;;;;;;3.96;70.74;101169.16;4966501;28;20030;-93
2021/12/25 00:59:33;;;;;;;12.70;7.93;;;;;;;4.21;70.85;101222.25;4967000;28;20027;-95
2021/12/25 01:02:09;;;;;;;12.27;7.93;;;;;;;3.16;71.56;101058.97;4966148;28;20052;-93
2021/12/25 01:04:49;;;;;;;12.75;8.32;;;;;;;4.14;71.45;101224.16;5004173;28;20041;-93
2021/12/25 01:07:23;;;;;;;12.32;7.88;;;;;;;3.77;71.84;101183.09;4994478;28;20062;-96
2021/12/25 01:10:14;;;;;;;12.05;8.02;;;;;;;3.28;71.35;101074.59;4993191;28;20030;-95
2021/12/25 01:15:57;;;;;;;12.23;7.72;;;;;;;4.17;71.55;101215.00;4987040;28;20030;-96
2021/12/25 01:24:33;;;;;;;11.27;7.13;;;;;;;3.23;71.75;101061.28;4992972;28;19909;-94
2021/12/25 01:27:57;;;;;;;12.38;7.88;;;;;;;4.25;71.13;101215.63;4978309;28;20029;-96
2021/12/25 01:30:51;;;;;;;13.23;8.30;;;;;;;3.17;71.49;101048.75;4991480;28;20050;-94
2021/12/25 01:33:32;;;;;;;11.32;7.28;;;;;;;3.20;71.68;101053.31;4990116;28;20027;-94
2021/12/25 01:47:43;;;;;;;10.82;7.15;;;;;;;3.50;71.44;101098.94;4986834;28;20052;-92
2021/12/25 01:50:25;;;;;;;13.35;7.70;;;;;;;4.18;71.53;101200.38;5008965;28;20023;-95
2021/12/25 01:52:56;;;;;;;10.43;7.28;;;;;;;3.21;71.82;101034.44;4977214;28;20040;-95
2021/12/25 01:55:37;;;;;;;12.30;7.55;;;;;;;3.24;71.34;101030.47;4985474;28;20034;-95
2021/12/25 01:58:55;;;;;;;10.85;7.38;;;;;;;4.20;71.87;101191.97;5014219;28;20046;-95
2021/12/25 02:01:29;;;;;;;12.15;7.45;;;;;;;3.06;71.58;101022.00;4992496;28;20037;-95
2021/12/25 02:03:57;;;;;;;11.18;7.80;;;;;;;3.66;71.50;101121.81;4969150;28;20030;-95
2021/12/25 02:06:23;;;;;;;11.25;7.40;;;;;;;3.20;71.67;101051.63;4967123;28;20022;-95
2021/12/25 02:08:55;;;;;;;12.00;7.43;;;;;;;3.22;71.58;101047.50;4965887;28;20090;-94
2021/12/25 02:11:20;;;;;;;10.82;7.25;;;;;;;3.14;71.64;101042.44;4953522;28;20027;-94
2021/12/25 02:13:51;;;;;;;11.25;7.07;;;;;;;4.17;71.99;101214.06;4968563;28;20117;-94
2021/12/25 02:16:21;;;;;;;11.60;7.70;;;;;;;3.33;71.19;101066.50;4967834;28;20054;-95
2021/12/25 02:21:37;;;;;;;10.85;6.85;;;;;;;3.24;71.11;101038.22;5000189;28;20150;-94
2021/12/25 02:24:11;;;;;;;12.02;7.38;;;;;;;4.17;72.33;101211.47;4951176;28;20054;-94
2021/12/25 02:26:47;;;;;;;9.85;7.35;;;;;;;4.07;71.68;101189.13;4956848;29;20390;-95
2021/12/25 02:29:14;;;;;;;10.15;7.05;;;;;;;3.88;70.96;101124.63;4946832;28;20034;-95
2021/12/25 02:31:45;;;;;;;10.15;7.03;;;;;;;3.40;71.11;101065.34;4963526;28;20056;-95
2021/12/25 02:34:25;;;;;;;11.40;7.07;;;;;;;4.16;71.42;101217.44;4960350;28;20058;-94
2021/12/25 02:36:55;;;;;;;11.68;6.82;;;;;;;3.42;71.92;101084.47;4966221;28;20085;-94
2021/12/25 02:39:28;;;;;;;10.90;7.15;;;;;;;3.85;71.86;101160.50;4968460;28;20026;-92
2021/12/25 02:42:08;;;;;;;10.77;7.22;;;;;;;3.31;71.83;101056.81;4967023;28;20042;-95
2021/12/25 02:44:36;;;;;;;11.60;7.10;;;;;;;4.26;71.12;101214.88;4980638;28;20058;-92
2021/12/25 02:47:09;;;;;;;11.00;6.95;;;;;;;3.38;71.69;101067.78;4947261;28;20038;-93
2021/12/25 02:50:08;;;;;;;10.05;6.97;;;;;;;4.22;71.96;101212.78;4944291;28;20058;-95
2021/12/25 02:52:49;;;;;;;9.75;6.60;;;;;;;3.95;71.87;101180.28;4958233;28;20026;-94
2021/12/25 02:55:17;;;;;;;9.45;6.72;;;;;;;4.17;72.18;101209.81;4959242;28;20038;-93
2021/12/25 02:58:23;;;;;;;11.55;7.15;;;;;;;4.21;71.89;101210.97;4963649;28;20132;-93
2021/12/25 03:00:56;;;;;;;10.88;6.88;;;;;;;4.22;71.87;101218.88;4983749;28;20034;-96
2021/12/25 03:03:28;;;;;;;9.52;6.53;;;;;;;4.26;71.68;101214.88;4970473;28;20033;-95
2021/12/25 03:06:48;;;;;;;11.00;6.70;;;;;;;4.24;71.54;101222.50;4967712;28;20100;-95
2021/12/25 03:09:51;;;;;;;11.82;7.22;;;;;;;4.21;71.63;101226.47;4979717;28;20030;-93
2021/12/25 03:12:28;;;;;;;10.27;6.72;;;;;;;4.18;71.93;101231.41;4959305;28;20113;-93
2021/12/25 03:17:30;;;;;;;10.15;6.70;;;;;;;3.96;71.88;101198.53;4982071;28;20034;-93
2021/12/25 03:19:59;;;;;;;10.93;7.38;;;;;;;4.15;71.88;101216.53;4980012;28;20106;-94
2021/12/25 03:22:41;;;;;;;12.43;7.35;;;;;;;4.00;71.97;101192.84;4967540;28;20054;-94
2021/12/25 03:25:20;;;;;;;10.52;6.88;;;;;;;4.17;72.05;101225.34;4967249;28;20030;-93
2021/12/25 03:27:48;;;;;;;12.43;6.93;;;;;;;4.16;72.51;101218.34;4967041;29;20050;-95
2021/12/25 03:30:16;;;;;;;9.90;6.60;;;;;;;4.15;71.32;101179.41;4977684;28;20038;-96
2021/12/25 03:32:45;;;;;;;9.82;6.53;;;;;;;4.16;71.28;101173.50;4988740;28;20026;-93
2021/12/25 03:35:11;;;;;;;10.23;7.00;;;;;;;4.24;71.70;101199.22;4970222;28;20098;-95
2021/12/25 03:37:39;;;;;;;9.88;6.55;;;;;;;4.29;71.33;101202.19;4969529;28;20080;-93
2021/12/25 03:40:07;;;;;;;10.15;6.88;;;;;;;4.27;71.59;101204.63;4966222;28;20404;-93
2021/12/25 03:42:54;;;;;;;10.13;6.63;;;;;;;4.19;72.37;101202.19;4962282;28;20085;-92
2021/12/25 03:45:21;;;;;;;9.63;6.75;;;;;;;4.11;71.96;101193.78;4961242;28;20524;-94
2021/12/25 03:47:51;;;;;;;10.35;6.70;;;;;;;3.81;72.33;101151.59;4961461;28;20040;-94
2021/12/25 03:59:06;;;;;;;10.33;6.47;;;;;;;4.29;71.22;101226.38;4977527;28;20051;-95
2021/12/25 04:04:17;;;;;;;10.57;6.90;;;;;;;4.23;71.42;101235.28;4962317;28;20030;-95
2021/12/25 04:06:55;;;;;;;9.30;6.43;;;;;;;4.28;71.68;101258.19;4943162;28;20033;-94
2021/12/25 04:09:26;;;;;;;9.68;6.40;;;;;;;3.93;72.13;101206.00;4965368;28;20055;-94
2021/12/25 04:11:59;;;;;;;11.02;6.72;;;;;;;4.38;71.78;101254.72;4983279;28;20106;-95
2021/12/25 04:14:40;;;;;;;9.93;6.57;;;;;;;4.37;71.70;101246.81;4988941;28;20065;-96
2021/12/25 04:17:28;;;;;;;10.30;6.90;;;;;;;4.31;71.61;101247.19;4978258;28;20453;-95
2021/12/25 04:20:22;;;;;;;9.02;6.60;;;;;;;4.07;72.28;101236.53;4990901;28;20030;-95
2021/12/25 04:23:29;;;;;;;8.82;6.30;;;;;;;4.24;71.82;101247.44;4966169;28;20022;-94
2021/12/25 04:25:57;;;;;;;9.07;6.40;;;;;;;3.96;72.41;101213.09;4978358;28;20484;-96
2021/12/25 04:28:46;;;;;;;10.45;6.63;;;;;;;4.19;71.42;101194.41;4966892;28;20018;-95
2021/12/25 05:04:41;;;;;;;10.75;6.55;;;;;;;4.30;71.99;101268.66;4978299;28;20463;-94
2021/12/25 05:07:12;;;;;;;9.60;6.22;;;;;;;4.21;71.29;101232.56;4966886;28;20030;-95
2021/12/25 05:09:38;;;;;;;9.70;6.22;;;;;;;4.22;72.02;101254.16;4967042;28;20042;-94
2021/12/25 05:12:07;;;;;;;11.10;6.97;;;;;;;4.24;71.28;101243.16;4968340;28;20386;-95
2021/12/25 05:23:18;;;;;;;9.13;6.28;;;;;;;3.38;71.34;101116.84;5038927;23;20042;-94
2021/12/25 05:31:47;;;;;;;10.57;6.35;;;;;;;3.35;71.89;101120.84;5009752;28;20045;-95
2021/12/25 05:34:17;;;;;;;9.73;6.68;;;;;;;4.18;71.74;101250.38;4971732;28;20038;-93
2021/12/25 05:36:45;;;;;;;9.88;6.70;;;;;;;3.30;71.81;101101.44;4967588;28;20054;-95
2021/12/25 05:39:24;;;;;;;9.55;6.35;;;;;;;4.16;71.76;101259.69;4974867;28;20064;-96
2021/12/25 05:41:51;;;;;;;8.95;6.38;;;;;;;3.76;71.88;101199.34;4975900;28;20030;-96
2021/12/25 05:44:23;;;;;;;9.52;6.53;;;;;;;3.36;72.13;101127.81;4990567;28;20065;-95
2021/12/25 05:47:36;;;;;;;9.48;6.15;;;;;;;3.50;71.76;101140.25;4972552;28;20034;-95
2021/12/25 05:50:20;;;;;;;11.38;6.60;;;;;;;4.35;71.66;101302.66;5007461;28;20030;-95
2021/12/25 05:52:47;;;;;;;9.77;6.60;;;;;;;4.06;71.30;101210.53;4956046;28;20039;-96
2021/12/25 05:55:17;;;;;;;9.27;6.20;;;;;;;3.46;71.56;101133.00;4974207;28;20038;-95
2021/12/25 05:57:47;;;;;;;8.57;6.13;;;;;;;4.45;71.46;101300.09;4961599;28;20110;-95
2021/12/25 06:00:20;;;;;;;10.77;6.95;;;;;;;3.59;71.42;101138.47;4982863;28;20073;-96
2021/12/25 06:05:28;;;;;;;11.20;6.40;;;;;;;3.56;71.11;101158.88;5097148;23;20063;-94
2021/12/25 06:08:01;;;;;;;9.15;6.35;;;;;;;4.38;71.97;101324.53;4977281;28;20113;-95
2021/12/25 06:10:29;;;;;;;9.73;6.80;;;;;;;4.31;70.94;101270.44;4961612;28;20039;-95
2021/12/25 06:13:00;;;;;;;9.88;6.85;;;;;;;4.23;71.59;101287.91;4966971;28;20030;-95
2021/12/25 06:15:36;;;;;;;10.38;6.10;;;;;;;3.37;72.07;101150.28;4966901;28;20130;-96
2021/12/25 06:21:27;;;;;;;8.60;6.22;;;;;;;4.40;72.28;101330.75;4997460;28;20288;-92
2021/12/25 06:24:05;;;;;;;9.85;6.50;;;;;;;3.28;72.25;101165.84;4998769;28;20031;-95
2021/12/25 06:26:38;;;;;;;9.18;6.50;;;;;;;4.16;71.76;101279.47;4969641;28;20042;-92
2021/12/25 06:29:07;;;;;;;11.68;6.55;;;;;;;4.42;71.81;101336.03;4948361;28;20041;-91
2021/12/25 06:32:11;;;;;;;9.35;6.65;;;;;;;4.40;71.78;101329.81;4982199;28;20037;-93
2021/12/25 06:34:49;;;;;;;9.88;6.45;;;;;;;4.33;72.52;101345.56;4979312;28;20029;-95
2021/12/25 06:37:23;;;;;;;10.40;6.60;;;;;;;4.47;71.51;101347.69;4977195;28;20030;-95
2021/12/25 06:39:55;;;;;;;9.80;6.00;;;;;;;4.42;71.50;101336.97;4970477;28;20019;-95
2021/12/25 06:42:21;;;;;;;10.20;6.60;;;;;;;4.33;71.25;101324.88;4972180;28;20085;-93
2021/12/25 06:44:57;;;;;;;9.05;6.50;;;;;;;3.93;72.13;101280.03;4971497;28;20026;-96
2021/12/25 06:47:28;;;;;;;10.45;6.47;;;;;;;3.44;71.82;101194.81;4973246;28;20030;-92
2021/12/25 06:50:50;;;;;;;11.18;6.65;;;;;;;4.62;71.92;101349.03;4971529;28;20014;-95
2021/12/25 06:55:51;;;;;;;9.48;6.50;;;;;;;3.50;71.56;101165.19;4997673;28;20055;-95
2021/12/25 07:01:17;;;;;;;10.10;5.95;;;;;;;3.60;71.99;101207.44;5333784;23;20057;-95
2021/12/25 07:03:59;;;;;;;9.88;6.70;;;;;;;3.89;72.07;101258.16;4962482;28;20034;-91
2021/12/25 07:12:19;;;;;;;9.43;6.50;;;;;;;3.49;72.14;101184.00;5459667;23;20051;-94
2021/12/25 07:25:05;;;;;;;11.27;6.60;;;;;;;4.37;71.95;101329.56;4919589;29;20060;-95
2021/12/25 07:27:43;;;;;;;10.48;7.18;;;;;;;4.47;71.83;101343.41;4885797;29;20044;-93
2021/12/25 07:30:27;;;;;;;11.40;6.93;;;;;;;4.58;72.16;101353.81;4888169;29;22159;-94
2021/12/25 07:33:04;;;;;;;11.30;7.05;;;;;;;4.38;71.42;101313.25;4892208;29;20032;-93
2021/12/25 07:38:53;;;;;;;10.73;6.50;;;;;;;4.43;72.12;101363.72;4897831;29;20107;-92
2021/12/25 07:41:20;;;;;;;9.50;6.60;;;;;;;4.34;72.10;101335.38;4881160;29;20021;-94
2021/12/25 07:47:08;;;;;;;10.38;6.55;;;;;;;4.44;71.66;101353.47;5073382;23;20115;-93
2021/12/25 07:49:44;;;;;;;11.57;6.85;;;;;;;4.38;71.46;101341.69;4928784;29;20040;-93
2021/12/25 07:52:13;;;;;;;8.75;6.10;;;;;;;3.81;71.84;101275.59;4902976;29;20040;-94
2021/12/25 07:54:53;;;;;;;9.85;6.82;;;;;;;3.84;71.35;101250.00;4905543;29;20032;-92
2021/12/25 07:57:36;;;;;;;9.68;6.47;;;;;;;4.58;71.60;101397.78;4910812;29;20024;-95
2021/12/25 08:00:09;;;;;;;9.00;6.20;;;;;;;4.21;71.84;101332.47;4917051;29;20031;-95
2021/12/25 08:03:11;;;;;;;10.07;6.72;;;;;;;4.55;72.15;101381.97;4914819;29;20044;-94
2021/12/25 08:05:57;;;;;;;8.90;6.50;;;;;;;4.53;72.00;101381.84;4908518;29;20068;-95
2021/12/25 08:08:27;;;;;;;9.98;6.68;;;;;;;3.64;71.83;101226.66;4907024;29;20032;-95
2021/12/25 08:14:29;;;;;;;11.02;6.88;;;;;;;4.53;71.48;101379.28;4954002;28;20062;-90
2021/12/25 08:17:01;;;;;;;10.25;6.43;;;;;;;3.73;71.44;101234.34;5003085;23;20119;-96
2021/12/25 08:19:28;;;;;;;8.75;6.32;;;;;;;3.95;71.13;101269.03;4900363;29;20032;-95
2021/12/25 08:21:59;;;;;;;9.88;6.40;;;;;;;3.60;71.60;101232.38;4972052;23;20099;-96
2021/12/25 08:24:42;;;;;;;9.15;6.22;;;;;;;4.59;71.87;101415.09;4934387;29;20035;-94
2021/12/25 08:27:08;;;;;;;9.70;6.72;;;;;;;3.53;72.08;101224.81;4944341;29;20547;-94
2021/12/25 08:29:38;;;;;;;8.27;5.97;;;;;;;4.72;71.55;101402.50;4924735;29;20036;-94
2021/12/25 08:32:04;;;;;;;11.70;6.93;;;;;;;4.43;71.54;101337.84;4938444;29;20028;-90
2021/12/25 08:34:34;;;;;;;11.52;7.20;;;;;;;4.64;72.29;101406.97;4909633;29;20032;-92
2021/12/25 08:37:06;;;;;;;9.90;6.60;;;;;;;3.66;71.86;101238.03;4932977;29;20031;-95
2021/12/25 08:39:44;;;;;;;10.57;6.60;;;;;;;3.76;72.34;101250.13;4934166;29;20042;-95
2021/12/25 08:48:02;;;;;;;9.52;6.35;;;;;;;4.83;71.12;101375.84;4938770;29;20583;-94
2021/12/25 08:51:18;;;;;;;8.93;6.68;;;;;;;4.81;71.06;101369.63;4921410;29;20042;-94
2021/12/25 08:53:46;;;;;;;10.70;7.03;;;;;;;4.98;70.99;101371.09;4953026;29;20481;-93
2021/12/25 08:56:15;;;;;;;9.38;6.65;;;;;;;5.13;70.14;101368.91;4913334;29;20035;-93
2021/12/25 08:59:00;;;;;;;10.40;6.90;;;;;;;5.06;70.93;101371.75;4910669;29;20079;-93
2021/12/25 09:01:32;;;;;;;11.27;7.03;;;;;;;5.19;70.11;101363.34;4913645;29;20063;-94
2021/12/25 09:04:06;;;;;;;10.18;6.63;;;;;;;5.07;70.08;101360.63;4906564;29;20119;-95
2021/12/25 09:06:35;;;;;;;10.23;6.55;;;;;;;4.64;71.56;101323.31;4910636;29;20084;-96
2021/12/25 09:09:23;;;;;;;10.93;7.35;;;;;;;4.68;71.48;101327.97;4915804;29;20119;-91
2021/12/25 09:11:56;;;;;;;10.05;6.57;;;;;;;4.43;70.98;101258.59;4922978;29;20044;-95
2021/12/25 09:14:45;;;;;;;9.25;6.15;;;;;;;4.83;71.54;101344.81;4898001;29;20115;-93
2021/12/25 09:17:27;;;;;;;10.93;7.03;;;;;;;4.13;71.71;101206.81;4922655;29;20039;-94
2021/12/25 09:20:03;;;;;;;11.02;7.00;;;;;;;3.82;71.57;101160.25;4909991;29;20421;-94
2021/12/25 09:22:36;;;;;;;11.00;7.20;;;;;;;5.00;71.00;101325.53;4910174;29;20046;-96
2021/12/25 09:25:20;;;;;;;11.15;7.13;;;;;;;4.28;71.47;101214.22;4950921;29;20359;-94
2021/12/25 09:27:53;;;;;;;11.75;7.38;;;;;;;4.28;71.07;101192.66;4913656;29;20038;-94
2021/12/25 09:30:21;;;;;;;10.65;7.32;;;;;;;3.88;71.76;101134.94;4907778;29;20040;-94
2021/12/25 09:32:51;;;;;;;11.20;7.25;;;;;;;4.62;71.79;101242.06;4915432;29;20032;-94
2021/12/25 09:35:19;;;;;;;10.98;7.30;;;;;;;4.37;70.53;101152.06;4903234;29;20096;-95
2021/12/25 09:38:01;;;;;;;11.13;7.18;;;;;;;5.15;71.35;101320.75;4901236;29;20032;-94
2021/12/25 09:40:37;;;;;;;15.60;9.13;;;;;;;4.32;71.23;101161.13;4903771;29;20039;-94
2021/12/25 09:43:17;;;;;;;19.02;9.98;;;;;;;4.52;70.35;101170.53;4913646;29;20023;-94
2021/12/25 09:45:44;;;;;;;17.08;9.88;;;;;;;5.20;71.17;101293.56;4932935;28;20040;-93
2021/12/25 09:50:42;;;;;;;18.75;10.25;;;;;;;4.82;71.55;101244.66;4936411;29;20056;-92
2021/12/25 09:53:19;;;;;;;17.95;10.25;;;;;;;5.13;71.60;101298.09;4872200;29;20138;-93
2021/12/25 09:55:49;;;;;;;18.10;10.80;;;;;;;5.25;71.79;101305.22;4879473;29;20032;-94
2021/12/25 09:58:44;;;;;;;16.27;9.93;;;;;;;5.16;72.01;101309.59;4945490;23;20055;-91
2021/12/25 10:01:57;;;;;;;17.02;9.93;;;;;;;5.35;70.92;101309.47;4907436;29;20036;-93
2021/12/25 10:08:14;;;;;;;15.95;10.20;;;;;;;5.27;71.26;101290.72;4938337;29;20126;-94
2021/12/25 10:10:54;;;;;;;15.68;9.52;;;;;;;5.21;71.23;101268.59;4918112;29;20064;-94
2021/12/25 10:13:31;;;;;;;15.13;9.27;;;;;;;5.30;71.56;101290.06;4929086;29;20490;-93
2021/12/25 10:16:26;;;;;;;13.75;8.55;;;;;;;5.42;70.73;101295.34;4905167;29;20031;-92
2021/12/25 10:19:21;;;;;;;14.80;8.80;;;;;;;5.41;71.39;101285.78;4923315;29;20091;-92
2021/12/25 10:25:19;;;;;;;15.25;8.65;;;;;;;5.33;70.96;101282.53;4950416;29;20046;-95
2021/12/25 10:28:14;;;;;;;15.98;9.90;;;;;;;5.12;72.47;101278.16;4980547;23;20038;-95
2021/12/25 10:31:07;;;;;;;13.00;7.88;;;;;;;4.16;72.01;101095.97;4931896;29;20038;-95
2021/12/25 10:33:41;;;;;;;14.88;8.93;;;;;;;5.33;71.40;101269.59;4924695;29;20043;-96
2021/12/25 10:36:26;;;;;;;14.20;8.95;;;;;;;4.80;71.79;101193.56;4913481;29;20454;-94
2021/12/25 10:39:28;;;;;;;14.25;8.32;;;;;;;5.26;71.88;101250.06;4920850;29;20032;-93
2021/12/25 10:42:10;;;;;;;13.30;8.40;;;;;;;5.09;72.62;101256.41;4915487;29;20028;-94
2021/12/25 10:44:44;;;;;;;15.20;8.30;;;;;;;4.78;71.95;101162.38;4903768;29;20032;-93
2021/12/25 10:47:50;;;;;;;12.57;8.13;;;;;;;5.38;71.90;101250.16;4916927;29;20036;-94
2021/12/25 10:50:18;;;;;;;14.40;8.10;;;;;;;5.28;71.39;101217.41;4933305;29;20032;-94
2021/12/25 10:52:57;;;;;;;12.95;8.20;;;;;;;5.08;71.71;101192.50;4906350;29;20028;-94
2021/12/25 10:55:46;;;;;;;13.80;8.23;;;;;;;5.29;72.17;101239.97;4904177;29;20042;-94
2021/12/25 10:58:23;;;;;;;12.45;7.97;;;;;;;5.07;72.01;101201.03;4926006;29;20099;-95
2021/12/25 11:00:56;;;;;;;13.55;8.63;;;;;;;5.16;72.13;101210.31;4907138;29;20102;-95
2021/12/25 11:03:32;;;;;;;13.45;8.50;;;;;;;5.51;70.95;101236.53;4925036;29;20062;-94
2021/12/25 11:06:18;;;;;;;13.98;8.00;;;;;;;5.13;71.98;101205.81;4922211;29;20043;-92
2021/12/25 11:09:07;;;;;;;13.95;8.30;;;;;;;5.42;71.54;101238.34;4903420;29;20028;-90
2021/12/25 11:12:10;;;;;;;15.15;8.32;;;;;;;5.45;71.30;101236.03;4915545;29;20478;-92
2021/12/25 11:14:38;;;;;;;13.15;8.05;;;;;;;5.57;71.01;101236.16;4914967;29;20036;-90
2021/12/25 11:17:33;;;;;;;12.88;8.32;;;;;;;5.45;71.29;101228.25;4911550;29;20027;-93
2021/12/25 11:20:33;;;;;;;11.63;7.50;;;;;;;5.37;71.59;101232.81;4888597;29;20573;-92
2021/12/25 11:23:04;;;;;;;13.25;8.10;;;;;;;5.27;71.53;101191.41;4882027;29;20083;-91
2021/12/25 11:25:32;;;;;;;12.18;7.68;;;;;;;5.55;70.23;101191.97;4895901;29;20032;-90
2021/12/25 11:28:00;;;;;;;12.15;7.55;;;;;;;5.42;71.38;101210.78;4902554;29;20046;-89
2021/12/25 11:30:58;;;;;;;12.18;7.85;;;;;;;5.64;71.01;101220.31;4901040;29;20092;-92
2021/12/25 11:33:29;;;;;;;13.10;8.20;;;;;;;5.39;71.03;101201.88;4903915;29;20107;-92
2021/12/25 11:39:24;;;;;;;13.93;7.50;;;;;;;5.67;70.56;101220.53;4920177;29;20047;-92
2021/12/25 11:42:09;;;;;;;12.30;7.68;;;;;;;5.56;70.29;101188.59;4903381;29;20040;-93
2021/12/25 11:44:55;;;;;;;13.38;8.63;;;;;;;5.57;70.36;101194.69;4898196;29;20106;-92
2021/12/25 11:48:15;;;;;;;13.80;8.13;;;;;;;5.76;70.59;101222.97;4919259;29;20111;-92
2021/12/25 11:50:47;;;;;;;13.40;8.05;;;;;;;5.71;69.88;101194.09;4904027;29;20032;-91
2021/12/25 11:54:13;;;;;;;13.35;8.38;;;;;;;5.74;70.61;101209.91;4903263;29;20032;-91
2021/12/25 11:57:01;;;;;;;13.68;8.35;;;;;;;5.49;70.62;101168.16;4917376;29;20040;-93
2021/12/25 12:00:00;;;;;;;11.20;7.43;;;;;;;5.65;71.24;101207.47;4919682;29;20058;-92
2021/12/25 12:03:08;;;;;;;15.80;8.50;;;;;;;5.87;70.42;101199.72;4904673;29;20051;-90
2021/12/25 12:05:54;;;;;;;13.68;7.65;;;;;;;5.90;70.46;101194.81;4918120;29;20497;-94
2021/12/25 12:08:21;;;;;;;13.85;7.70;;;;;;;5.77;70.76;101196.28;4904676;29;20048;-95
2021/12/25 12:11:02;;;;;;;12.75;7.57;;;;;;;5.77;70.77;101197.19;4920567;29;20039;-94
2021/12/25 12:13:32;;;;;;;14.32;8.40;;;;;;;5.70;70.30;101159.50;4915428;29;20028;-92
2021/12/25 12:16:35;;;;;;;13.50;7.97;;;;;;;6.08;69.77;101194.47;4924524;29;20044;-93
2021/12/25 12:19:36;;;;;;;12.50;7.93;;;;;;;6.05;70.11;101186.44;4907965;29;20032;-91
2021/12/25 12:25:23;;;;;;;12.73;7.60;;;;;;;6.00;70.11;101188.66;4919705;29;20048;-93
2021/12/25 12:28:02;;;;;;;10.70;7.70;;;;;;;5.98;70.02;101197.13;4919479;29;20115;-91
2021/12/25 12:30:38;;;;;;;12.20;7.55;;;;;;;5.94;70.76;101202.81;4923038;29;20036;-91
2021/12/25 12:33:27;;;;;;;12.82;8.00;;;;;;;5.81;71.11;101196.66;4903403;29;20036;-91
2021/12/25 12:36:26;;;;;;;13.05;8.15;;;;;;;6.05;69.85;101195.16;4919650;29;20043;-94
2021/12/25 12:39:14;;;;;;;11.88;7.82;;;;;;;6.11;69.89;101199.88;4902869;29;20040;-92
2021/12/25 12:41:51;;;;;;;11.20;7.10;;;;;;;5.87;69.81;101160.84;4902218;29;20050;-91
2021/12/25 12:44:39;;;;;;;11.65;7.60;;;;;;;6.04;70.10;101190.72;4902464;29;20107;-91
2021/12/25 12:47:24;;;;;;;12.70;8.43;;;;;;;6.02;70.15;101197.47;4902582;29;20055;-92
2021/12/25 12:50:04;;;;;;;14.45;8.00;;;;;;;6.15;69.98;101198.44;4886899;29;20028;-93
2021/12/25 12:52:57;;;;;;;12.15;7.97;;;;;;;6.29;69.15;101197.84;4886629;29;20092;-90
2021/12/25 12:55:42;;;;;;;11.90;7.90;;;;;;;6.09;69.43;101157.38;4886673;29;20051;-89
2021/12/25 12:58:17;;;;;;;12.55;8.10;;;;;;;6.02;69.03;101140.44;4902944;29;20517;-94
2021/12/25 13:00:48;;;;;;;14.50;8.55;;;;;;;6.14;69.31;101170.69;4886691;29;20024;-93
2021/12/25 13:03:30;;;;;;;14.48;8.98;;;;;;;5.96;69.91;101165.00;4902549;29;20556;-93
2021/12/25 13:06:24;;;;;;;13.77;8.90;;;;;;;6.15;70.00;101198.44;4918957;29;20025;-91
2021/12/25 13:08:54;;;;;;;14.07;8.68;;;;;;;6.11;69.94;101192.09;4903460;29;20024;-95
2021/12/25 13:11:37;;;;;;;13.80;8.20;;;;;;;5.85;70.16;101156.34;4902236;29;20031;-94
2021/12/25 13:14:05;;;;;;;13.05;8.05;;;;;;;5.79;70.66;101155.84;4888226;29;20031;-94
2021/12/25 13:17:01;;;;;;;11.98;7.70;;;;;;;6.11;70.11;101189.50;4902107;29;20067;-93
2021/12/25 13:19:48;;;;;;;13.05;8.35;;;;;;;5.77;69.70;101113.34;4886466;29;20032;-92
2021/12/25 13:22:42;;;;;;;13.65;7.90;;;;;;;6.38;69.02;101187.28;4886324;29;20083;-92
2021/12/25 13:25:13;;;;;;;12.55;7.97;;;;;;;6.43;69.02;101188.53;4902037;29;20802;-92
2021/12/25 13:31:04;;;;;;;12.23;8.00;;;;;;;6.45;68.96;101194.72;4918446;29;20091;-92
2021/12/25 13:33:54;;;;;;;11.85;7.72;;;;;;;6.37;69.07;101194.16;4885701;29;20032;-94
2021/12/25 13:36:35;;;;;;;13.35;8.45;;;;;;;6.52;68.32;101191.84;4885850;29;20044;-91
2021/12/25 13:39:34;;;;;;;12.95;8.35;;;;;;;6.46;68.50;101192.25;4907053;29;20023;-92
2021/12/25 13:42:28;;;;;;;12.43;7.55;;;;;;;6.53;68.77;101193.63;4923700;29;20046;-93
2021/12/25 13:45:09;;;;;;;15.52;7.88;;;;;;;6.22;68.71;101154.97;4939312;29;20035;-93
2021/12/25 13:48:19;;;;;;;12.95;7.82;;;;;;;6.46;69.09;101204.34;4939433;29;20027;-91
2021/12/25 13:50:46;;;;;;;12.02;7.50;;;;;;;6.53;68.65;101199.72;4977340;29;20031;-91
2021/12/25 13:53:23;;;;;;;;;;;;;;;6.57;68.30;101198.28;4978579;28;20027;-91
2021/12/25 13:55:51;;;;;;;11.75;7.93;;;;;;;6.29;68.69;101157.25;4949539;29;19962;-90
2021/12/25 13:58:50;;;;;;;12.07;7.40;;;;;;;6.47;68.65;101201.84;4925645;29;20039;-91
2021/12/25 14:01:27;;;;;;;12.02;7.82;;;;;;;6.34;68.99;101167.97;4955829;29;20028;-91
2021/12/25 14:04:12;;;;;;;13.50;7.57;;;;;;;6.53;68.72;101201.41;4922930;29;20026;-92
2021/12/25 14:07:13;;;;;;;12.75;7.80;;;;;;;6.54;68.87;101198.06;4923015;29;20473;-91
2021/12/25 14:09:57;;;;;;;12.98;7.78;;;;;;;6.54;68.71;101190.28;4923055;29;20054;-91
2021/12/25 14:12:25;;;;;;;11.68;7.82;;;;;;;6.54;68.90;101185.09;4922269;29;20039;-91
2021/12/25 14:15:10;;;;;;;12.18;7.80;;;;;;;6.27;68.29;101150.13;4938131;29;20035;-92
2021/12/25 14:17:46;;;;;;;12.55;7.88;;;;;;;6.47;68.68;101170.72;4922567;29;20035;-92
2021/12/25 14:20:43;;;;;;;11.18;7.72;;;;;;;6.52;69.04;101199.63;4922596;29;20037;-93
2021/12/25 14:23:33;;;;;;;11.73;7.38;;;;;;;6.71;68.35;101195.06;4921454;29;20046;-93
2021/12/25 14:26:00;;;;;;;14.73;8.57;;;;;;;6.46;68.38;101165.44;4935209;29;20035;-93
2021/12/25 14:28:33;;;;;;;13.40;7.40;;;;;;;6.23;68.81;101141.22;4900771;29;20040;-94
2021/12/25 14:31:10;;;;;;;13.23;8.32;;;;;;;6.64;68.61;101208.31;4900529;29;20036;-93
2021/12/25 14:33:55;;;;;;;;;;;;;;;6.65;68.58;101211.84;4916462;29;20064;-94
2021/12/25 14:36:25;;;;;;;11.40;7.82;;;;;;;6.64;68.58;101205.72;4915992;29;20005;-94
2021/12/25 14:39:01;;;;;;;12.45;7.75;;;;;;;6.38;68.20;101138.88;4907481;29;20063;-93
2021/12/25 14:41:38;;;;;;;13.00;8.00;;;;;;;6.78;68.21;101203.31;4935124;29;20038;-95
2021/12/25 14:44:25;;;;;;;11.75;7.97;;;;;;;6.43;69.09;101163.47;4919103;29;20027;-92
2021/12/25 14:47:12;;;;;;;12.90;8.13;;;;;;;6.66;68.88;101204.16;4919140;29;20126;-93
2021/12/25 14:49:43;;;;;;;;;;;;;;;6.72;68.73;101201.13;4919924;29;20044;-94
2021/12/25 14:55:51;;;;;;;15.32;7.97;;;;;;;6.63;68.67;101206.53;4935941;29;20549;-92
2021/12/25 14:58:35;;;;;;;15.15;7.88;;;;;;;6.36;68.99;101176.78;4918603;29;20032;-93